sensor_id;sensor_type;location;lat;lon;timestamp;temperature;humidity
39957;DHT22;48483;44.640;7.494;2022-09-29T00:00:34;15.40;99.90
39957;DHT22;48483;44.640;7.494;2022-09-29T00:03:01;15.40;99.90
39957;DHT22;48483;44.640;7.494;2022-09-29T00:05:28;15.40;99.90
39957;DHT22;48483;44.640;7.494;2022-09-29T00:07:55;15.40;99.90
39957;DHT22;48483;44.640;7.494;2022-09-29T00:10:22;15.40;99.90
39957;DHT22;48483;44.640;7.494;2022-09-29T00:12:49;15.40;99.90
39957;DHT22;48483;44.640;7.494;2022-09-29T00:15:16;15.40;99.90
39957;DHT22;48483;44.640;7.494;2022-09-29T00:17:44;15.40;99.90
39957;DHT22;48483;44.640;7.494;2022-09-29T00:20:10;15.40;99.90
39957;DHT22;48483;44.640;7.494;2022-09-29T00:22:37;15.40;99.90
39957;DHT22;48483;44.640;7.494;2022-09-29T00:25:04;15.40;99.90
39957;DHT22;48483;44.640;7.494;2022-09-29T00:27:31;15.40;99.90
39957;DHT22;48483;44.640;7.494;2022-09-29T00:29:57;15.50;99.90
39957;DHT22;48483;44.640;7.494;2022-09-29T00:32:24;15.40;99.90
39957;DHT22;48483;44.640;7.494;2022-09-29T00:34:52;15.40;99.90
39957;DHT22;48483;44.640;7.494;2022-09-29T00:37:18;15.40;99.90
39957;DHT22;48483;44.640;7.494;2022-09-29T00:39:45;15.40;99.90
39957;DHT22;48483;44.640;7.494;2022-09-29T00:42:12;15.40;99.90
39957;DHT22;48483;44.640;7.494;2022-09-29T00:44:56;15.40;99.90
39957;DHT22;48483;44.640;7.494;2022-09-29T00:47:25;15.40;99.90
39957;DHT22;48483;44.640;7.494;2022-09-29T00:49:56;15.40;99.90
39957;DHT22;48483;44.640;7.494;2022-09-29T00:52:28;15.40;99.90
39957;DHT22;48483;44.640;7.494;2022-09-29T00:55:01;15.40;99.90
39957;DHT22;48483;44.640;7.494;2022-09-29T00:57:30;15.40;99.90
39957;DHT22;48483;44.640;7.494;2022-09-29T01:00:01;15.40;99.90
39957;DHT22;48483;44.640;7.494;2022-09-29T01:02:29;15.30;99.90
39957;DHT22;48483;44.640;7.494;2022-09-29T01:04:59;15.30;99.90
39957;DHT22;48483;44.640;7.494;2022-09-29T01:07:26;15.30;99.90
39957;DHT22;48483;44.640;7.494;2022-09-29T01:09:54;15.30;99.90
39957;DHT22;48483;44.640;7.494;2022-09-29T01:12:22;15.30;99.90
39957;DHT22;48483;44.640;7.494;2022-09-29T01:14:50;15.30;99.90
39957;DHT22;48483;44.640;7.494;2022-09-29T01:17:17;15.30;99.90
39957;DHT22;48483;44.640;7.494;2022-09-29T01:19:51;15.30;99.90
39957;DHT22;48483;44.640;7.494;2022-09-29T01:22:51;15.30;99.90
39957;DHT22;48483;44.640;7.494;2022-09-29T01:25:41;15.30;99.90
39957;DHT22;48483;44.640;7.494;2022-09-29T01:28:26;15.30;99.90
39957;DHT22;48483;44.640;7.494;2022-09-29T01:31:12;15.30;99.90
39957;DHT22;48483;44.640;7.494;2022-09-29T01:33:43;15.30;99.90
39957;DHT22;48483;44.640;7.494;2022-09-29T01:36:19;15.30;99.90
39957;DHT22;48483;44.640;7.494;2022-09-29T01:39:00;15.30;99.90
39957;DHT22;48483;44.640;7.494;2022-09-29T01:41:34;15.30;99.90
39957;DHT22;48483;44.640;7.494;2022-09-29T01:44:07;15.40;99.90
39957;DHT22;48483;44.640;7.494;2022-09-29T01:46:42;15.40;99.90
39957;DHT22;48483;44.640;7.494;2022-09-29T01:49:11;15.40;99.90
39957;DHT22;48483;44.640;7.494;2022-09-29T01:51:43;15.40;99.90
39957;DHT22;48483;44.640;7.494;2022-09-29T01:54:16;15.40;99.90
39957;DHT22;48483;44.640;7.494;2022-09-29T01:56:44;15.40;99.90
39957;DHT22;48483;44.640;7.494;2022-09-29T01:59:14;15.40;99.90
39957;DHT22;48483;44.640;7.494;2022-09-29T02:01:45;15.40;99.90
39957;DHT22;48483;44.640;7.494;2022-09-29T02:04:15;15.40;99.90
39957;DHT22;48483;44.640;7.494;2022-09-29T02:06:47;15.40;99.90
39957;DHT22;48483;44.640;7.494;2022-09-29T02:09:18;15.40;99.90
39957;DHT22;48483;44.640;7.494;2022-09-29T02:11:46;15.30;99.90
39957;DHT22;48483;44.640;7.494;2022-09-29T02:14:17;15.30;99.90
39957;DHT22;48483;44.640;7.494;2022-09-29T02:16:48;15.40;99.90
39957;DHT22;48483;44.640;7.494;2022-09-29T02:19:20;15.30;99.90
39957;DHT22;48483;44.640;7.494;2022-09-29T02:21:48;15.30;99.90
39957;DHT22;48483;44.640;7.494;2022-09-29T02:24:14;15.30;99.90
39957;DHT22;48483;44.640;7.494;2022-09-29T02:26:42;15.30;99.90
39957;DHT22;48483;44.640;7.494;2022-09-29T02:29:10;15.30;99.90
39957;DHT22;48483;44.640;7.494;2022-09-29T02:31:38;15.30;99.90
39957;DHT22;48483;44.640;7.494;2022-09-29T02:34:08;15.30;99.90
39957;DHT22;48483;44.640;7.494;2022-09-29T02:36:42;15.30;99.90
39957;DHT22;48483;44.640;7.494;2022-09-29T02:39:22;15.30;99.90
39957;DHT22;48483;44.640;7.494;2022-09-29T02:41:59;15.30;99.90
39957;DHT22;48483;44.640;7.494;2022-09-29T02:44:41;15.30;99.90
39957;DHT22;48483;44.640;7.494;2022-09-29T02:50:19;15.30;99.90
39957;DHT22;48483;44.640;7.494;2022-09-29T02:52:53;15.30;99.90
39957;DHT22;48483;44.640;7.494;2022-09-29T02:55:27;15.20;99.90
39957;DHT22;48483;44.640;7.494;2022-09-29T02:57:59;15.20;99.90
39957;DHT22;48483;44.640;7.494;2022-09-29T03:00:29;15.20;99.90
39957;DHT22;48483;44.640;7.494;2022-09-29T03:02:56;15.20;99.90
39957;DHT22;48483;44.640;7.494;2022-09-29T03:05:24;15.20;99.90
39957;DHT22;48483;44.640;7.494;2022-09-29T03:07:51;15.20;99.90
39957;DHT22;48483;44.640;7.494;2022-09-29T03:10:18;15.20;99.90
39957;DHT22;48483;44.640;7.494;2022-09-29T03:12:44;15.10;99.90
39957;DHT22;48483;44.640;7.494;2022-09-29T03:15:13;15.20;99.90
39957;DHT22;48483;44.640;7.494;2022-09-29T03:17:40;15.10;99.90
39957;DHT22;48483;44.640;7.494;2022-09-29T03:20:07;15.10;99.90
39957;DHT22;48483;44.640;7.494;2022-09-29T03:22:35;15.00;99.90
39957;DHT22;48483;44.640;7.494;2022-09-29T03:25:02;15.00;99.90
39957;DHT22;48483;44.640;7.494;2022-09-29T03:27:29;14.90;99.90
39957;DHT22;48483;44.640;7.494;2022-09-29T03:29:55;14.90;99.90
39957;DHT22;48483;44.640;7.494;2022-09-29T03:32:22;14.90;99.90
39957;DHT22;48483;44.640;7.494;2022-09-29T03:34:48;14.90;99.90
39957;DHT22;48483;44.640;7.494;2022-09-29T03:37:15;14.90;99.90
39957;DHT22;48483;44.640;7.494;2022-09-29T03:39:43;14.80;99.90
39957;DHT22;48483;44.640;7.494;2022-09-29T03:42:10;14.70;99.90
39957;DHT22;48483;44.640;7.494;2022-09-29T03:44:36;14.80;99.90
39957;DHT22;48483;44.640;7.494;2022-09-29T03:47:03;14.80;99.90
39957;DHT22;48483;44.640;7.494;2022-09-29T03:49:29;14.80;99.90
39957;DHT22;48483;44.640;7.494;2022-09-29T03:51:56;14.80;99.90
39957;DHT22;48483;44.640;7.494;2022-09-29T03:54:23;14.80;99.90
39957;DHT22;48483;44.640;7.494;2022-09-29T03:56:53;14.90;99.90
39957;DHT22;48483;44.640;7.494;2022-09-29T03:59:19;14.90;99.90
39957;DHT22;48483;44.640;7.494;2022-09-29T04:01:46;14.80;99.90
39957;DHT22;48483;44.640;7.494;2022-09-29T04:04:12;14.80;99.90
39957;DHT22;48483;44.640;7.494;2022-09-29T04:06:39;14.80;99.90
39957;DHT22;48483;44.640;7.494;2022-09-29T04:09:06;14.80;99.90
39957;DHT22;48483;44.640;7.494;2022-09-29T04:11:32;14.80;99.90
39957;DHT22;48483;44.640;7.494;2022-09-29T04:14:00;14.90;99.90
39957;DHT22;48483;44.640;7.494;2022-09-29T04:16:27;14.90;99.90
39957;DHT22;48483;44.640;7.494;2022-09-29T04:18:53;14.90;99.90
39957;DHT22;48483;44.640;7.494;2022-09-29T04:21:20;14.90;99.90
39957;DHT22;48483;44.640;7.494;2022-09-29T04:23:47;14.90;99.90
39957;DHT22;48483;44.640;7.494;2022-09-29T04:26:13;14.90;99.90
39957;DHT22;48483;44.640;7.494;2022-09-29T04:28:40;14.90;99.90
39957;DHT22;48483;44.640;7.494;2022-09-29T04:31:08;14.90;99.90
39957;DHT22;48483;44.640;7.494;2022-09-29T04:33:35;14.90;99.90
39957;DHT22;48483;44.640;7.494;2022-09-29T04:36:03;14.90;99.90
39957;DHT22;48483;44.640;7.494;2022-09-29T04:38:30;14.90;99.90
39957;DHT22;48483;44.640;7.494;2022-09-29T04:40:57;14.90;99.90
39957;DHT22;48483;44.640;7.494;2022-09-29T04:43:24;14.90;99.90
39957;DHT22;48483;44.640;7.494;2022-09-29T04:45:50;14.90;99.90
39957;DHT22;48483;44.640;7.494;2022-09-29T04:48:18;14.90;99.90
39957;DHT22;48483;44.640;7.494;2022-09-29T04:50:45;14.90;99.90
39957;DHT22;48483;44.640;7.494;2022-09-29T04:53:11;14.80;99.90
39957;DHT22;48483;44.640;7.494;2022-09-29T04:55:38;14.70;99.90
39957;DHT22;48483;44.640;7.494;2022-09-29T04:58:05;14.70;99.90
39957;DHT22;48483;44.640;7.494;2022-09-29T05:00:32;14.70;99.90
39957;DHT22;48483;44.640;7.494;2022-09-29T05:02:58;14.70;99.90
39957;DHT22;48483;44.640;7.494;2022-09-29T05:05:27;14.70;99.90
39957;DHT22;48483;44.640;7.494;2022-09-29T05:07:54;14.70;99.90
39957;DHT22;48483;44.640;7.494;2022-09-29T05:10:20;14.70;99.90
39957;DHT22;48483;44.640;7.494;2022-09-29T05:12:48;14.70;99.90
39957;DHT22;48483;44.640;7.494;2022-09-29T05:15:15;14.60;99.90
39957;DHT22;48483;44.640;7.494;2022-09-29T05:17:42;14.60;99.90
39957;DHT22;48483;44.640;7.494;2022-09-29T05:20:09;14.60;99.90
39957;DHT22;48483;44.640;7.494;2022-09-29T05:22:37;14.60;99.90
39957;DHT22;48483;44.640;7.494;2022-09-29T05:25:05;14.60;99.90
39957;DHT22;48483;44.640;7.494;2022-09-29T05:27:34;14.60;99.90
39957;DHT22;48483;44.640;7.494;2022-09-29T05:30:01;14.60;99.90
39957;DHT22;48483;44.640;7.494;2022-09-29T05:32:28;14.60;99.90
39957;DHT22;48483;44.640;7.494;2022-09-29T05:34:55;14.60;99.90
39957;DHT22;48483;44.640;7.494;2022-09-29T05:37:23;14.60;99.90
39957;DHT22;48483;44.640;7.494;2022-09-29T05:39:51;14.60;99.90
39957;DHT22;48483;44.640;7.494;2022-09-29T05:42:17;14.50;99.90
39957;DHT22;48483;44.640;7.494;2022-09-29T05:44:45;14.60;99.90
39957;DHT22;48483;44.640;7.494;2022-09-29T05:47:12;14.60;99.90
39957;DHT22;48483;44.640;7.494;2022-09-29T05:49:38;14.60;99.90
39957;DHT22;48483;44.640;7.494;2022-09-29T05:52:05;14.60;99.90
39957;DHT22;48483;44.640;7.494;2022-09-29T05:54:32;14.60;99.90
39957;DHT22;48483;44.640;7.494;2022-09-29T05:57:00;14.60;99.90
39957;DHT22;48483;44.640;7.494;2022-09-29T05:59:26;14.60;99.90
39957;DHT22;48483;44.640;7.494;2022-09-29T06:01:53;14.70;99.90
39957;DHT22;48483;44.640;7.494;2022-09-29T06:04:19;14.70;99.90
39957;DHT22;48483;44.640;7.494;2022-09-29T06:06:46;14.70;99.90
39957;DHT22;48483;44.640;7.494;2022-09-29T06:09:13;14.80;99.90
39957;DHT22;48483;44.640;7.494;2022-09-29T06:11:40;14.80;99.90
39957;DHT22;48483;44.640;7.494;2022-09-29T06:14:08;14.80;99.90
39957;DHT22;48483;44.640;7.494;2022-09-29T06:16:35;14.80;99.90
39957;DHT22;48483;44.640;7.494;2022-09-29T06:19:02;14.80;99.90
39957;DHT22;48483;44.640;7.494;2022-09-29T06:21:30;14.80;99.90
39957;DHT22;48483;44.640;7.494;2022-09-29T06:23:57;14.80;99.90
39957;DHT22;48483;44.640;7.494;2022-09-29T06:26:25;14.80;99.90
39957;DHT22;48483;44.640;7.494;2022-09-29T06:28:53;14.90;99.90
39957;DHT22;48483;44.640;7.494;2022-09-29T06:31:22;14.90;99.90
39957;DHT22;48483;44.640;7.494;2022-09-29T06:33:50;14.90;99.90
39957;DHT22;48483;44.640;7.494;2022-09-29T06:36:18;14.90;99.90
39957;DHT22;48483;44.640;7.494;2022-09-29T06:39:05;15.00;99.90
39957;DHT22;48483;44.640;7.494;2022-09-29T06:41:32;14.90;99.90
39957;DHT22;48483;44.640;7.494;2022-09-29T06:44:01;15.00;99.90
39957;DHT22;48483;44.640;7.494;2022-09-29T06:46:29;15.00;99.90
39957;DHT22;48483;44.640;7.494;2022-09-29T06:48:56;14.90;99.90
39957;DHT22;48483;44.640;7.494;2022-09-29T06:51:23;15.00;99.90
39957;DHT22;48483;44.640;7.494;2022-09-29T06:53:51;15.00;99.90
39957;DHT22;48483;44.640;7.494;2022-09-29T06:56:18;15.00;99.90
39957;DHT22;48483;44.640;7.494;2022-09-29T06:58:45;15.00;99.90
39957;DHT22;48483;44.640;7.494;2022-09-29T07:01:12;15.00;99.90
39957;DHT22;48483;44.640;7.494;2022-09-29T07:03:40;15.00;99.90
39957;DHT22;48483;44.640;7.494;2022-09-29T07:06:08;15.00;99.90
39957;DHT22;48483;44.640;7.494;2022-09-29T07:08:35;15.00;99.90
39957;DHT22;48483;44.640;7.494;2022-09-29T07:11:04;15.00;99.90
39957;DHT22;48483;44.640;7.494;2022-09-29T07:13:31;15.00;99.90
39957;DHT22;48483;44.640;7.494;2022-09-29T07:16:02;15.10;99.90
39957;DHT22;48483;44.640;7.494;2022-09-29T07:18:32;15.10;99.90
39957;DHT22;48483;44.640;7.494;2022-09-29T07:21:01;15.10;99.90
39957;DHT22;48483;44.640;7.494;2022-09-29T07:23:28;15.10;99.90
39957;DHT22;48483;44.640;7.494;2022-09-29T07:25:55;15.10;99.90
39957;DHT22;48483;44.640;7.494;2022-09-29T07:28:22;15.20;99.90
39957;DHT22;48483;44.640;7.494;2022-09-29T07:30:57;15.20;99.90
39957;DHT22;48483;44.640;7.494;2022-09-29T07:33:24;15.20;99.90
39957;DHT22;48483;44.640;7.494;2022-09-29T07:35:51;15.20;99.90
39957;DHT22;48483;44.640;7.494;2022-09-29T07:38:19;15.20;99.90
39957;DHT22;48483;44.640;7.494;2022-09-29T07:40:46;15.20;99.90
39957;DHT22;48483;44.640;7.494;2022-09-29T07:43:13;15.30;99.90
39957;DHT22;48483;44.640;7.494;2022-09-29T07:45:45;15.30;99.90
39957;DHT22;48483;44.640;7.494;2022-09-29T07:48:12;15.40;99.90
39957;DHT22;48483;44.640;7.494;2022-09-29T07:50:38;15.30;99.90
39957;DHT22;48483;44.640;7.494;2022-09-29T07:53:05;15.30;99.90
39957;DHT22;48483;44.640;7.494;2022-09-29T07:55:33;15.30;99.90
39957;DHT22;48483;44.640;7.494;2022-09-29T07:58:00;15.30;99.90
39957;DHT22;48483;44.640;7.494;2022-09-29T08:00:27;15.30;99.90
39957;DHT22;48483;44.640;7.494;2022-09-29T08:02:58;15.30;99.90
39957;DHT22;48483;44.640;7.494;2022-09-29T08:05:25;15.30;99.90
39957;DHT22;48483;44.640;7.494;2022-09-29T08:07:53;15.40;99.90
39957;DHT22;48483;44.640;7.494;2022-09-29T08:10:20;15.40;99.90
39957;DHT22;48483;44.640;7.494;2022-09-29T08:12:48;15.50;99.90
39957;DHT22;48483;44.640;7.494;2022-09-29T08:15:14;15.50;99.90
39957;DHT22;48483;44.640;7.494;2022-09-29T08:17:41;15.50;99.90
39957;DHT22;48483;44.640;7.494;2022-09-29T08:20:08;15.60;99.90
39957;DHT22;48483;44.640;7.494;2022-09-29T08:22:35;15.60;99.90
39957;DHT22;48483;44.640;7.494;2022-09-29T08:25:01;15.60;99.90
39957;DHT22;48483;44.640;7.494;2022-09-29T08:27:28;15.70;99.90
39957;DHT22;48483;44.640;7.494;2022-09-29T08:29:56;15.80;99.90
39957;DHT22;48483;44.640;7.494;2022-09-29T08:32:23;15.80;99.90
39957;DHT22;48483;44.640;7.494;2022-09-29T08:34:50;15.90;99.90
39957;DHT22;48483;44.640;7.494;2022-09-29T08:37:17;15.90;99.90
39957;DHT22;48483;44.640;7.494;2022-09-29T08:39:43;16.00;99.90
39957;DHT22;48483;44.640;7.494;2022-09-29T08:42:14;16.00;99.90
39957;DHT22;48483;44.640;7.494;2022-09-29T08:44:46;16.00;99.90
39957;DHT22;48483;44.640;7.494;2022-09-29T08:47:18;16.00;99.90
39957;DHT22;48483;44.640;7.494;2022-09-29T08:49:50;16.00;99.90
39957;DHT22;48483;44.640;7.494;2022-09-29T08:52:20;16.10;99.90
39957;DHT22;48483;44.640;7.494;2022-09-29T08:54:53;16.10;99.90
39957;DHT22;48483;44.640;7.494;2022-09-29T08:57:22;16.10;99.90
39957;DHT22;48483;44.640;7.494;2022-09-29T08:59:53;16.20;99.90
39957;DHT22;48483;44.640;7.494;2022-09-29T09:08:24;16.10;99.90
39957;DHT22;48483;44.640;7.494;2022-09-29T09:11:03;16.20;99.90
39957;DHT22;48483;44.640;7.494;2022-09-29T09:13:47;16.20;99.90
39957;DHT22;48483;44.640;7.494;2022-09-29T09:16:24;16.20;99.90
39957;DHT22;48483;44.640;7.494;2022-09-29T09:19:05;16.30;99.90
39957;DHT22;48483;44.640;7.494;2022-09-29T09:21:40;16.30;99.90
39957;DHT22;48483;44.640;7.494;2022-09-29T09:24:16;16.40;99.90
39957;DHT22;48483;44.640;7.494;2022-09-29T09:26:45;16.40;99.90
39957;DHT22;48483;44.640;7.494;2022-09-29T09:29:17;16.40;99.90
39957;DHT22;48483;44.640;7.494;2022-09-29T09:31:49;16.30;99.90
39957;DHT22;48483;44.640;7.494;2022-09-29T09:34:22;16.30;99.90
39957;DHT22;48483;44.640;7.494;2022-09-29T09:36:55;16.40;99.90
39957;DHT22;48483;44.640;7.494;2022-09-29T09:39:28;16.40;99.90
39957;DHT22;48483;44.640;7.494;2022-09-29T09:41:58;16.40;99.90
39957;DHT22;48483;44.640;7.494;2022-09-29T09:44:28;16.50;99.90
39957;DHT22;48483;44.640;7.494;2022-09-29T09:47:02;16.60;99.90
39957;DHT22;48483;44.640;7.494;2022-09-29T09:49:34;16.60;99.90
39957;DHT22;48483;44.640;7.494;2022-09-29T09:52:08;16.70;99.90
39957;DHT22;48483;44.640;7.494;2022-09-29T09:54:39;16.70;99.90
39957;DHT22;48483;44.640;7.494;2022-09-29T09:57:42;16.80;99.90
39957;DHT22;48483;44.640;7.494;2022-09-29T10:00:15;16.80;99.90
39957;DHT22;48483;44.640;7.494;2022-09-29T10:02:45;16.90;99.90
39957;DHT22;48483;44.640;7.494;2022-09-29T10:05:15;17.10;99.90
39957;DHT22;48483;44.640;7.494;2022-09-29T10:07:43;17.20;99.90
39957;DHT22;48483;44.640;7.494;2022-09-29T10:10:16;17.20;99.90
39957;DHT22;48483;44.640;7.494;2022-09-29T10:12:43;17.10;99.90
39957;DHT22;48483;44.640;7.494;2022-09-29T10:15:21;17.10;99.90
39957;DHT22;48483;44.640;7.494;2022-09-29T10:18:02;17.20;99.90
39957;DHT22;48483;44.640;7.494;2022-09-29T10:20:36;17.20;99.90
39957;DHT22;48483;44.640;7.494;2022-09-29T10:23:26;17.30;99.90
39957;DHT22;48483;44.640;7.494;2022-09-29T10:25:56;17.30;99.90
39957;DHT22;48483;44.640;7.494;2022-09-29T10:28:25;17.40;99.90
39957;DHT22;48483;44.640;7.494;2022-09-29T10:30:53;17.40;99.90
39957;DHT22;48483;44.640;7.494;2022-09-29T10:33:22;17.50;99.90
39957;DHT22;48483;44.640;7.494;2022-09-29T10:36:03;17.60;99.90
39957;DHT22;48483;44.640;7.494;2022-09-29T10:38:31;17.70;99.90
39957;DHT22;48483;44.640;7.494;2022-09-29T10:41:01;17.60;99.90
39957;DHT22;48483;44.640;7.494;2022-09-29T10:43:35;17.60;99.90
39957;DHT22;48483;44.640;7.494;2022-09-29T10:46:04;17.60;99.90
39957;DHT22;48483;44.640;7.494;2022-09-29T10:48:31;17.60;99.90
39957;DHT22;48483;44.640;7.494;2022-09-29T10:51:00;17.70;99.90
39957;DHT22;48483;44.640;7.494;2022-09-29T10:53:33;17.70;99.90
39957;DHT22;48483;44.640;7.494;2022-09-29T10:56:04;17.80;99.90
39957;DHT22;48483;44.640;7.494;2022-09-29T10:58:34;17.80;99.90
39957;DHT22;48483;44.640;7.494;2022-09-29T11:01:05;17.80;99.90
39957;DHT22;48483;44.640;7.494;2022-09-29T11:03:34;17.80;99.90
39957;DHT22;48483;44.640;7.494;2022-09-29T11:06:07;17.80;99.90
39957;DHT22;48483;44.640;7.494;2022-09-29T11:08:56;17.80;99.90
39957;DHT22;48483;44.640;7.494;2022-09-29T11:11:25;17.80;99.90
39957;DHT22;48483;44.640;7.494;2022-09-29T11:13:53;18.00;99.90
39957;DHT22;48483;44.640;7.494;2022-09-29T11:16:26;18.10;99.90
39957;DHT22;48483;44.640;7.494;2022-09-29T11:18:56;18.10;99.90
39957;DHT22;48483;44.640;7.494;2022-09-29T11:21:53;18.10;99.90
39957;DHT22;48483;44.640;7.494;2022-09-29T11:24:28;18.10;99.90
39957;DHT22;48483;44.640;7.494;2022-09-29T11:27:00;18.10;99.90
39957;DHT22;48483;44.640;7.494;2022-09-29T11:29:36;18.10;99.90
39957;DHT22;48483;44.640;7.494;2022-09-29T11:32:16;18.10;99.90
39957;DHT22;48483;44.640;7.494;2022-09-29T11:35:15;18.10;99.90
39957;DHT22;48483;44.640;7.494;2022-09-29T11:38:01;18.10;99.90
39957;DHT22;48483;44.640;7.494;2022-09-29T11:40:34;18.10;99.90
39957;DHT22;48483;44.640;7.494;2022-09-29T11:43:16;18.10;99.90
39957;DHT22;48483;44.640;7.494;2022-09-29T11:45:57;18.20;99.90
39957;DHT22;48483;44.640;7.494;2022-09-29T11:48:40;18.20;99.90
39957;DHT22;48483;44.640;7.494;2022-09-29T11:51:17;18.20;99.90
39957;DHT22;48483;44.640;7.494;2022-09-29T11:54:01;18.20;99.90
39957;DHT22;48483;44.640;7.494;2022-09-29T11:56:40;18.20;99.90
39957;DHT22;48483;44.640;7.494;2022-09-29T11:59:27;18.30;99.90
39957;DHT22;48483;44.640;7.494;2022-09-29T12:02:14;18.30;99.90
39957;DHT22;48483;44.640;7.494;2022-09-29T12:04:52;18.30;99.90
39957;DHT22;48483;44.640;7.494;2022-09-29T12:07:30;18.40;99.90
39957;DHT22;48483;44.640;7.494;2022-09-29T12:10:19;18.50;99.90
39957;DHT22;48483;44.640;7.494;2022-09-29T12:12:56;18.50;99.90
39957;DHT22;48483;44.640;7.494;2022-09-29T12:15:32;18.50;99.90
39957;DHT22;48483;44.640;7.494;2022-09-29T12:18:03;18.70;99.90
39957;DHT22;48483;44.640;7.494;2022-09-29T12:20:36;18.70;99.90
39957;DHT22;48483;44.640;7.494;2022-09-29T12:23:09;18.80;99.90
39957;DHT22;48483;44.640;7.494;2022-09-29T12:25:42;18.80;99.90
39957;DHT22;48483;44.640;7.494;2022-09-29T12:28:13;18.90;99.90
39957;DHT22;48483;44.640;7.494;2022-09-29T12:30:46;18.90;99.90
39957;DHT22;48483;44.640;7.494;2022-09-29T12:33:20;18.90;99.90
39957;DHT22;48483;44.640;7.494;2022-09-29T12:35:54;19.00;99.90
39957;DHT22;48483;44.640;7.494;2022-09-29T12:38:27;18.90;99.90
39957;DHT22;48483;44.640;7.494;2022-09-29T12:41:06;18.90;99.90
39957;DHT22;48483;44.640;7.494;2022-09-29T12:43:40;18.80;99.90
39957;DHT22;48483;44.640;7.494;2022-09-29T12:46:12;18.70;99.90
39957;DHT22;48483;44.640;7.494;2022-09-29T12:48:50;18.70;99.90
39957;DHT22;48483;44.640;7.494;2022-09-29T12:51:23;18.70;99.90
39957;DHT22;48483;44.640;7.494;2022-09-29T12:54:04;18.70;99.90
39957;DHT22;48483;44.640;7.494;2022-09-29T12:56:38;18.70;99.90
39957;DHT22;48483;44.640;7.494;2022-09-29T12:59:05;18.80;99.90
39957;DHT22;48483;44.640;7.494;2022-09-29T13:01:35;18.80;99.90
39957;DHT22;48483;44.640;7.494;2022-09-29T13:04:37;18.90;99.90
39957;DHT22;48483;44.640;7.494;2022-09-29T13:07:27;18.90;99.90
39957;DHT22;48483;44.640;7.494;2022-09-29T13:10:18;19.00;99.90
39957;DHT22;48483;44.640;7.494;2022-09-29T13:13:07;18.90;99.90
39957;DHT22;48483;44.640;7.494;2022-09-29T13:15:44;18.80;99.90
39957;DHT22;48483;44.640;7.494;2022-09-29T13:21:30;18.90;99.90
39957;DHT22;48483;44.640;7.494;2022-09-29T13:24:28;18.90;99.90
39957;DHT22;48483;44.640;7.494;2022-09-29T13:27:12;19.00;99.90
39957;DHT22;48483;44.640;7.494;2022-09-29T13:29:47;19.00;99.90
39957;DHT22;48483;44.640;7.494;2022-09-29T13:32:14;19.10;99.90
39957;DHT22;48483;44.640;7.494;2022-09-29T13:34:47;19.10;99.90
39957;DHT22;48483;44.640;7.494;2022-09-29T13:37:18;19.10;99.90
39957;DHT22;48483;44.640;7.494;2022-09-29T13:39:53;19.20;99.90
39957;DHT22;48483;44.640;7.494;2022-09-29T13:42:38;19.30;99.90
39957;DHT22;48483;44.640;7.494;2022-09-29T13:45:40;19.30;99.90
39957;DHT22;48483;44.640;7.494;2022-09-29T13:48:34;19.20;99.90
39957;DHT22;48483;44.640;7.494;2022-09-29T13:51:22;19.30;99.90
39957;DHT22;48483;44.640;7.494;2022-09-29T13:54:22;19.20;99.90
39957;DHT22;48483;44.640;7.494;2022-09-29T13:56:57;19.10;99.90
39957;DHT22;48483;44.640;7.494;2022-09-29T13:59:25;19.10;99.90
39957;DHT22;48483;44.640;7.494;2022-09-29T14:01:53;19.10;99.90
39957;DHT22;48483;44.640;7.494;2022-09-29T14:04:42;19.20;99.90
39957;DHT22;48483;44.640;7.494;2022-09-29T14:07:11;19.20;99.90
39957;DHT22;48483;44.640;7.494;2022-09-29T14:09:41;19.10;99.90
39957;DHT22;48483;44.640;7.494;2022-09-29T14:12:08;19.10;99.90
39957;DHT22;48483;44.640;7.494;2022-09-29T14:14:43;19.00;99.90
39957;DHT22;48483;44.640;7.494;2022-09-29T14:17:15;19.00;99.90
39957;DHT22;48483;44.640;7.494;2022-09-29T14:19:49;19.00;99.90
39957;DHT22;48483;44.640;7.494;2022-09-29T14:22:52;19.00;99.90
39957;DHT22;48483;44.640;7.494;2022-09-29T14:25:31;18.90;99.90
39957;DHT22;48483;44.640;7.494;2022-09-29T14:28:04;18.90;99.90
39957;DHT22;48483;44.640;7.494;2022-09-29T14:30:42;19.00;99.90
39957;DHT22;48483;44.640;7.494;2022-09-29T14:33:14;19.00;99.90
39957;DHT22;48483;44.640;7.494;2022-09-29T14:35:43;18.90;99.90
39957;DHT22;48483;44.640;7.494;2022-09-29T14:38:16;18.90;99.90
39957;DHT22;48483;44.640;7.494;2022-09-29T14:40:56;18.90;99.90
39957;DHT22;48483;44.640;7.494;2022-09-29T14:43:25;18.90;99.90
39957;DHT22;48483;44.640;7.494;2022-09-29T14:46:24;18.90;99.90
39957;DHT22;48483;44.640;7.494;2022-09-29T14:49:36;18.90;99.90
39957;DHT22;48483;44.640;7.494;2022-09-29T14:52:33;18.90;99.90
39957;DHT22;48483;44.640;7.494;2022-09-29T14:55:08;18.90;99.90
39957;DHT22;48483;44.640;7.494;2022-09-29T14:57:48;18.90;99.90
39957;DHT22;48483;44.640;7.494;2022-09-29T15:00:19;18.80;99.90
39957;DHT22;48483;44.640;7.494;2022-09-29T15:02:49;18.90;99.90
39957;DHT22;48483;44.640;7.494;2022-09-29T15:05:27;18.90;99.90
39957;DHT22;48483;44.640;7.494;2022-09-29T15:07:54;18.80;99.90
39957;DHT22;48483;44.640;7.494;2022-09-29T15:10:24;18.80;99.90
39957;DHT22;48483;44.640;7.494;2022-09-29T15:13:13;18.80;99.90
39957;DHT22;48483;44.640;7.494;2022-09-29T15:15:40;18.80;99.90
39957;DHT22;48483;44.640;7.494;2022-09-29T15:18:19;18.80;99.90
39957;DHT22;48483;44.640;7.494;2022-09-29T15:21:00;18.80;99.90
39957;DHT22;48483;44.640;7.494;2022-09-29T15:26:36;18.70;99.90
39957;DHT22;48483;44.640;7.494;2022-09-29T15:29:05;18.70;99.90
39957;DHT22;48483;44.640;7.494;2022-09-29T15:31:33;18.60;99.90
39957;DHT22;48483;44.640;7.494;2022-09-29T15:34:01;18.60;99.90
39957;DHT22;48483;44.640;7.494;2022-09-29T15:36:33;18.60;99.90
39957;DHT22;48483;44.640;7.494;2022-09-29T15:39:04;18.60;99.90
39957;DHT22;48483;44.640;7.494;2022-09-29T15:41:33;18.60;99.90
39957;DHT22;48483;44.640;7.494;2022-09-29T15:44:02;18.60;99.90
39957;DHT22;48483;44.640;7.494;2022-09-29T15:46:35;18.50;99.90
39957;DHT22;48483;44.640;7.494;2022-09-29T15:49:13;18.50;99.90
39957;DHT22;48483;44.640;7.494;2022-09-29T15:51:54;18.50;99.90
39957;DHT22;48483;44.640;7.494;2022-09-29T15:54:24;18.50;99.90
39957;DHT22;48483;44.640;7.494;2022-09-29T15:56:51;18.50;99.90
39957;DHT22;48483;44.640;7.494;2022-09-29T15:59:54;18.50;99.90
39957;DHT22;48483;44.640;7.494;2022-09-29T16:02:25;18.50;99.90
39957;DHT22;48483;44.640;7.494;2022-09-29T16:04:55;18.50;99.90
39957;DHT22;48483;44.640;7.494;2022-09-29T16:07:26;18.50;99.90
39957;DHT22;48483;44.640;7.494;2022-09-29T16:10:00;18.40;99.90
39957;DHT22;48483;44.640;7.494;2022-09-29T16:12:29;18.40;99.90
39957;DHT22;48483;44.640;7.494;2022-09-29T16:15:00;18.40;99.90